sensor_id;sensor_type;location;lat;lon;timestamp;P1;durP1;ratioP1;P2;durP2;ratioP2
70975;SDS011;58635;51.198;6.010;2023-11-18T00:00:35;22.55;;;13.52;;
70975;SDS011;58635;51.198;6.010;2023-11-18T00:03:01;22.90;;;13.90;;
70975;SDS011;58635;51.198;6.010;2023-11-18T00:05:28;22.05;;;12.70;;
70975;SDS011;58635;51.198;6.010;2023-11-18T00:07:54;21.48;;;14.05;;
70975;SDS011;58635;51.198;6.010;2023-11-18T00:10:21;20.10;;;13.40;;
70975;SDS011;58635;51.198;6.010;2023-11-18T00:12:47;20.77;;;13.80;;
70975;SDS011;58635;51.198;6.010;2023-11-18T00:15:14;20.40;;;13.80;;
70975;SDS011;58635;51.198;6.010;2023-11-18T00:17:40;22.08;;;13.73;;
70975;SDS011;58635;51.198;6.010;2023-11-18T00:20:06;22.10;;;13.88;;
70975;SDS011;58635;51.198;6.010;2023-11-18T00:22:38;21.05;;;13.85;;
70975;SDS011;58635;51.198;6.010;2023-11-18T00:25:05;21.08;;;15.32;;
70975;SDS011;58635;51.198;6.010;2023-11-18T00:27:33;19.02;;;12.82;;
70975;SDS011;58635;51.198;6.010;2023-11-18T00:30:02;21.67;;;13.80;;
70975;SDS011;58635;51.198;6.010;2023-11-18T00:32:34;22.77;;;15.13;;
70975;SDS011;58635;51.198;6.010;2023-11-18T00:35:01;20.73;;;14.40;;
70975;SDS011;58635;51.198;6.010;2023-11-18T00:37:30;20.23;;;14.10;;
70975;SDS011;58635;51.198;6.010;2023-11-18T00:39:57;18.92;;;13.40;;
70975;SDS011;58635;51.198;6.010;2023-11-18T00:42:23;21.33;;;13.73;;
70975;SDS011;58635;51.198;6.010;2023-11-18T00:44:50;20.10;;;13.57;;
70975;SDS011;58635;51.198;6.010;2023-11-18T00:47:16;19.98;;;13.77;;
70975;SDS011;58635;51.198;6.010;2023-11-18T00:49:42;21.17;;;13.63;;
70975;SDS011;58635;51.198;6.010;2023-11-18T00:52:09;20.15;;;14.15;;
70975;SDS011;58635;51.198;6.010;2023-11-18T00:54:35;21.63;;;13.73;;
70975;SDS011;58635;51.198;6.010;2023-11-18T00:57:02;20.27;;;13.27;;
70975;SDS011;58635;51.198;6.010;2023-11-18T00:59:29;19.50;;;13.45;;
70975;SDS011;58635;51.198;6.010;2023-11-18T01:01:55;21.77;;;14.00;;
70975;SDS011;58635;51.198;6.010;2023-11-18T01:04:22;19.55;;;14.25;;
70975;SDS011;58635;51.198;6.010;2023-11-18T01:06:48;21.40;;;13.13;;
70975;SDS011;58635;51.198;6.010;2023-11-18T01:09:14;18.05;;;13.48;;
70975;SDS011;58635;51.198;6.010;2023-11-18T01:11:42;23.55;;;14.30;;
70975;SDS011;58635;51.198;6.010;2023-11-18T01:14:08;18.98;;;13.48;;
70975;SDS011;58635;51.198;6.010;2023-11-18T01:16:34;21.27;;;14.48;;
70975;SDS011;58635;51.198;6.010;2023-11-18T01:19:01;19.55;;;13.32;;
70975;SDS011;58635;51.198;6.010;2023-11-18T01:21:27;21.25;;;13.93;;
70975;SDS011;58635;51.198;6.010;2023-11-18T01:23:53;19.30;;;13.98;;
70975;SDS011;58635;51.198;6.010;2023-11-18T01:26:20;20.92;;;13.75;;
70975;SDS011;58635;51.198;6.010;2023-11-18T01:28:47;19.70;;;13.88;;
70975;SDS011;58635;51.198;6.010;2023-11-18T01:31:14;19.73;;;13.98;;
70975;SDS011;58635;51.198;6.010;2023-11-18T01:33:40;20.35;;;13.27;;
70975;SDS011;58635;51.198;6.010;2023-11-18T01:36:07;18.65;;;13.70;;
70975;SDS011;58635;51.198;6.010;2023-11-18T01:38:38;19.55;;;12.95;;
70975;SDS011;58635;51.198;6.010;2023-11-18T01:41:05;22.27;;;14.57;;
70975;SDS011;58635;51.198;6.010;2023-11-18T01:43:32;20.80;;;13.63;;
70975;SDS011;58635;51.198;6.010;2023-11-18T01:45:59;21.55;;;13.80;;
70975;SDS011;58635;51.198;6.010;2023-11-18T01:48:28;20.92;;;13.40;;
70975;SDS011;58635;51.198;6.010;2023-11-18T01:50:59;21.52;;;14.73;;
70975;SDS011;58635;51.198;6.010;2023-11-18T01:53:30;22.75;;;13.77;;
70975;SDS011;58635;51.198;6.010;2023-11-18T01:55:57;22.10;;;13.98;;
70975;SDS011;58635;51.198;6.010;2023-11-18T01:58:25;20.15;;;13.82;;
70975;SDS011;58635;51.198;6.010;2023-11-18T02:00:52;17.40;;;13.18;;
70975;SDS011;58635;51.198;6.010;2023-11-18T02:03:19;21.13;;;13.75;;
70975;SDS011;58635;51.198;6.010;2023-11-18T02:05:46;18.98;;;12.77;;
70975;SDS011;58635;51.198;6.010;2023-11-18T02:08:12;20.77;;;13.63;;
70975;SDS011;58635;51.198;6.010;2023-11-18T02:10:49;19.67;;;13.38;;
70975;SDS011;58635;51.198;6.010;2023-11-18T02:13:23;20.58;;;12.93;;
70975;SDS011;58635;51.198;6.010;2023-11-18T02:15:53;19.13;;;13.38;;
70975;SDS011;58635;51.198;6.010;2023-11-18T02:18:24;20.60;;;13.70;;
70975;SDS011;58635;51.198;6.010;2023-11-18T02:20:52;19.73;;;13.77;;
70975;SDS011;58635;51.198;6.010;2023-11-18T02:23:21;19.15;;;12.73;;
70975;SDS011;58635;51.198;6.010;2023-11-18T02:25:48;21.33;;;13.65;;
70975;SDS011;58635;51.198;6.010;2023-11-18T02:28:15;21.92;;;13.05;;
70975;SDS011;58635;51.198;6.010;2023-11-18T02:30:41;18.42;;;13.93;;
70975;SDS011;58635;51.198;6.010;2023-11-18T02:36:04;19.35;;;13.10;;
70975;SDS011;58635;51.198;6.010;2023-11-18T02:38:38;20.63;;;14.23;;
70975;SDS011;58635;51.198;6.010;2023-11-18T02:41:11;19.60;;;13.68;;
70975;SDS011;58635;51.198;6.010;2023-11-18T02:43:40;21.90;;;14.98;;
70975;SDS011;58635;51.198;6.010;2023-11-18T02:46:07;19.70;;;13.75;;
70975;SDS011;58635;51.198;6.010;2023-11-18T02:48:34;19.17;;;13.35;;
70975;SDS011;58635;51.198;6.010;2023-11-18T02:51:03;23.45;;;13.90;;
70975;SDS011;58635;51.198;6.010;2023-11-18T02:53:30;19.77;;;13.50;;
70975;SDS011;58635;51.198;6.010;2023-11-18T02:55:57;20.95;;;14.18;;
70975;SDS011;58635;51.198;6.010;2023-11-18T02:58:29;19.17;;;13.18;;
70975;SDS011;58635;51.198;6.010;2023-11-18T03:00:56;20.23;;;13.48;;
70975;SDS011;58635;51.198;6.010;2023-11-18T03:03:23;21.27;;;13.02;;
70975;SDS011;58635;51.198;6.010;2023-11-18T03:05:49;20.27;;;14.07;;
70975;SDS011;58635;51.198;6.010;2023-11-18T03:08:16;21.75;;;14.85;;
70975;SDS011;58635;51.198;6.010;2023-11-18T03:10:42;19.60;;;13.52;;
70975;SDS011;58635;51.198;6.010;2023-11-18T03:13:10;22.10;;;13.90;;
70975;SDS011;58635;51.198;6.010;2023-11-18T03:15:38;25.15;;;14.13;;
70975;SDS011;58635;51.198;6.010;2023-11-18T03:18:04;19.02;;;13.85;;
70975;SDS011;58635;51.198;6.010;2023-11-18T03:20:33;20.23;;;14.30;;
70975;SDS011;58635;51.198;6.010;2023-11-18T03:22:59;22.05;;;14.13;;
70975;SDS011;58635;51.198;6.010;2023-11-18T03:25:29;18.73;;;13.38;;
70975;SDS011;58635;51.198;6.010;2023-11-18T03:27:55;19.08;;;13.77;;
70975;SDS011;58635;51.198;6.010;2023-11-18T03:30:21;19.85;;;14.10;;
70975;SDS011;58635;51.198;6.010;2023-11-18T03:32:48;20.48;;;14.23;;
70975;SDS011;58635;51.198;6.010;2023-11-18T03:35:14;20.00;;;13.07;;
70975;SDS011;58635;51.198;6.010;2023-11-18T03:37:41;20.33;;;12.57;;
70975;SDS011;58635;51.198;6.010;2023-11-18T03:40:08;23.65;;;14.68;;
70975;SDS011;58635;51.198;6.010;2023-11-18T03:42:35;22.75;;;13.00;;
70975;SDS011;58635;51.198;6.010;2023-11-18T03:45:03;21.25;;;13.27;;
70975;SDS011;58635;51.198;6.010;2023-11-18T03:47:30;18.20;;;12.85;;
70975;SDS011;58635;51.198;6.010;2023-11-18T03:49:57;20.50;;;12.85;;
70975;SDS011;58635;51.198;6.010;2023-11-18T03:52:24;19.88;;;13.50;;
70975;SDS011;58635;51.198;6.010;2023-11-18T03:54:50;18.48;;;12.57;;
70975;SDS011;58635;51.198;6.010;2023-11-18T03:57:17;17.98;;;12.90;;
70975;SDS011;58635;51.198;6.010;2023-11-18T03:59:43;18.02;;;12.10;;
70975;SDS011;58635;51.198;6.010;2023-11-18T04:02:09;20.20;;;13.20;;
70975;SDS011;58635;51.198;6.010;2023-11-18T04:04:37;19.45;;;13.00;;
70975;SDS011;58635;51.198;6.010;2023-11-18T04:07:04;16.90;;;12.27;;
70975;SDS011;58635;51.198;6.010;2023-11-18T04:09:30;18.40;;;12.25;;
70975;SDS011;58635;51.198;6.010;2023-11-18T04:11:57;19.77;;;13.52;;
70975;SDS011;58635;51.198;6.010;2023-11-18T04:14:24;20.05;;;13.07;;
70975;SDS011;58635;51.198;6.010;2023-11-18T04:16:51;19.30;;;13.02;;
70975;SDS011;58635;51.198;6.010;2023-11-18T04:19:18;22.67;;;14.88;;
70975;SDS011;58635;51.198;6.010;2023-11-18T04:21:44;24.08;;;16.98;;
70975;SDS011;58635;51.198;6.010;2023-11-18T04:24:14;26.40;;;16.63;;
70975;SDS011;58635;51.198;6.010;2023-11-18T04:26:41;25.75;;;17.42;;
70975;SDS011;58635;51.198;6.010;2023-11-18T04:29:08;27.23;;;17.35;;
70975;SDS011;58635;51.198;6.010;2023-11-18T04:31:34;27.98;;;18.45;;
70975;SDS011;58635;51.198;6.010;2023-11-18T04:34:02;29.10;;;18.10;;
70975;SDS011;58635;51.198;6.010;2023-11-18T04:36:30;27.38;;;18.25;;
70975;SDS011;58635;51.198;6.010;2023-11-18T04:38:57;30.58;;;17.73;;
70975;SDS011;58635;51.198;6.010;2023-11-18T04:41:23;28.15;;;17.85;;
70975;SDS011;58635;51.198;6.010;2023-11-18T04:43:50;24.83;;;17.02;;
70975;SDS011;58635;51.198;6.010;2023-11-18T04:46:16;29.83;;;17.92;;
70975;SDS011;58635;51.198;6.010;2023-11-18T04:48:42;23.90;;;16.42;;
70975;SDS011;58635;51.198;6.010;2023-11-18T04:51:09;21.83;;;14.60;;
70975;SDS011;58635;51.198;6.010;2023-11-18T04:53:35;21.65;;;15.05;;
70975;SDS011;58635;51.198;6.010;2023-11-18T04:56:02;24.08;;;15.35;;
70975;SDS011;58635;51.198;6.010;2023-11-18T04:58:28;26.40;;;16.40;;
70975;SDS011;58635;51.198;6.010;2023-11-18T05:00:55;23.70;;;15.52;;
70975;SDS011;58635;51.198;6.010;2023-11-18T05:03:21;22.77;;;14.30;;
70975;SDS011;58635;51.198;6.010;2023-11-18T05:05:47;20.85;;;13.30;;
70975;SDS011;58635;51.198;6.010;2023-11-18T05:08:18;18.13;;;12.77;;
70975;SDS011;58635;51.198;6.010;2023-11-18T05:10:49;18.63;;;11.65;;
70975;SDS011;58635;51.198;6.010;2023-11-18T05:13:16;19.45;;;11.75;;
70975;SDS011;58635;51.198;6.010;2023-11-18T05:15:45;18.88;;;11.23;;
70975;SDS011;58635;51.198;6.010;2023-11-18T05:18:12;17.58;;;11.23;;
70975;SDS011;58635;51.198;6.010;2023-11-18T05:20:42;16.52;;;11.02;;
70975;SDS011;58635;51.198;6.010;2023-11-18T05:23:09;15.27;;;10.73;;
70975;SDS011;58635;51.198;6.010;2023-11-18T05:25:36;17.35;;;11.13;;
70975;SDS011;58635;51.198;6.010;2023-11-18T05:28:03;17.33;;;10.57;;
70975;SDS011;58635;51.198;6.010;2023-11-18T05:30:31;16.35;;;11.05;;
70975;SDS011;58635;51.198;6.010;2023-11-18T05:32:57;17.83;;;11.00;;
70975;SDS011;58635;51.198;6.010;2023-11-18T05:35:24;18.50;;;11.07;;
70975;SDS011;58635;51.198;6.010;2023-11-18T05:37:54;15.88;;;10.88;;
70975;SDS011;58635;51.198;6.010;2023-11-18T05:40:21;15.40;;;10.73;;
70975;SDS011;58635;51.198;6.010;2023-11-18T05:42:48;15.05;;;10.43;;
70975;SDS011;58635;51.198;6.010;2023-11-18T05:45:18;16.73;;;11.15;;
70975;SDS011;58635;51.198;6.010;2023-11-18T05:47:54;17.98;;;11.18;;
70975;SDS011;58635;51.198;6.010;2023-11-18T05:50:21;15.23;;;10.70;;
70975;SDS011;58635;51.198;6.010;2023-11-18T05:52:50;17.90;;;11.43;;
70975;SDS011;58635;51.198;6.010;2023-11-18T05:55:17;17.05;;;11.43;;
70975;SDS011;58635;51.198;6.010;2023-11-18T05:57:43;16.48;;;11.00;;
70975;SDS011;58635;51.198;6.010;2023-11-18T06:00:14;17.15;;;10.95;;
70975;SDS011;58635;51.198;6.010;2023-11-18T06:02:41;14.98;;;10.60;;
70975;SDS011;58635;51.198;6.010;2023-11-18T06:05:08;15.95;;;10.20;;
70975;SDS011;58635;51.198;6.010;2023-11-18T06:07:36;17.08;;;10.43;;
70975;SDS011;58635;51.198;6.010;2023-11-18T06:10:02;15.30;;;9.25;;
70975;SDS011;58635;51.198;6.010;2023-11-18T06:12:31;16.30;;;10.18;;
70975;SDS011;58635;51.198;6.010;2023-11-18T06:14:58;16.13;;;9.82;;
70975;SDS011;58635;51.198;6.010;2023-11-18T06:17:25;13.85;;;9.55;;
70975;SDS011;58635;51.198;6.010;2023-11-18T06:19:51;13.73;;;9.25;;
70975;SDS011;58635;51.198;6.010;2023-11-18T06:22:17;13.20;;;9.35;;
70975;SDS011;58635;51.198;6.010;2023-11-18T06:24:44;15.45;;;9.20;;
70975;SDS011;58635;51.198;6.010;2023-11-18T06:27:10;14.82;;;9.68;;
70975;SDS011;58635;51.198;6.010;2023-11-18T06:29:36;14.43;;;9.20;;
70975;SDS011;58635;51.198;6.010;2023-11-18T06:32:03;14.10;;;8.82;;
70975;SDS011;58635;51.198;6.010;2023-11-18T06:34:31;12.68;;;8.82;;
70975;SDS011;58635;51.198;6.010;2023-11-18T06:36:58;12.98;;;8.55;;
70975;SDS011;58635;51.198;6.010;2023-11-18T06:39:25;14.13;;;9.05;;
70975;SDS011;58635;51.198;6.010;2023-11-18T06:41:58;13.13;;;7.95;;
70975;SDS011;58635;51.198;6.010;2023-11-18T06:44:25;15.45;;;8.05;;
70975;SDS011;58635;51.198;6.010;2023-11-18T06:46:51;13.48;;;8.10;;
70975;SDS011;58635;51.198;6.010;2023-11-18T06:49:17;14.30;;;8.70;;
70975;SDS011;58635;51.198;6.010;2023-11-18T06:51:44;14.45;;;9.27;;
70975;SDS011;58635;51.198;6.010;2023-11-18T06:54:11;13.50;;;8.98;;
70975;SDS011;58635;51.198;6.010;2023-11-18T06:56:40;15.38;;;9.02;;
70975;SDS011;58635;51.198;6.010;2023-11-18T06:59:10;16.00;;;8.95;;
70975;SDS011;58635;51.198;6.010;2023-11-18T07:01:38;14.50;;;9.07;;
70975;SDS011;58635;51.198;6.010;2023-11-18T07:04:06;11.57;;;8.05;;
70975;SDS011;58635;51.198;6.010;2023-11-18T07:06:36;13.57;;;7.93;;
70975;SDS011;58635;51.198;6.010;2023-11-18T07:09:06;13.82;;;7.68;;
70975;SDS011;58635;51.198;6.010;2023-11-18T07:11:42;14.15;;;7.82;;
70975;SDS011;58635;51.198;6.010;2023-11-18T07:14:09;13.52;;;8.35;;
70975;SDS011;58635;51.198;6.010;2023-11-18T07:16:40;14.15;;;8.82;;
70975;SDS011;58635;51.198;6.010;2023-11-18T07:19:08;15.00;;;10.13;;
70975;SDS011;58635;51.198;6.010;2023-11-18T07:21:36;17.13;;;11.10;;
70975;SDS011;58635;51.198;6.010;2023-11-18T07:24:02;15.07;;;9.23;;
70975;SDS011;58635;51.198;6.010;2023-11-18T07:26:28;14.15;;;8.52;;
70975;SDS011;58635;51.198;6.010;2023-11-18T07:28:55;14.23;;;8.38;;
70975;SDS011;58635;51.198;6.010;2023-11-18T07:31:22;14.55;;;7.47;;
70975;SDS011;58635;51.198;6.010;2023-11-18T07:33:48;12.27;;;7.50;;
70975;SDS011;58635;51.198;6.010;2023-11-18T07:36:15;13.52;;;6.70;;
70975;SDS011;58635;51.198;6.010;2023-11-18T07:38:42;10.38;;;5.65;;
70975;SDS011;58635;51.198;6.010;2023-11-18T07:41:09;12.68;;;6.65;;
70975;SDS011;58635;51.198;6.010;2023-11-18T07:43:36;11.05;;;6.47;;
70975;SDS011;58635;51.198;6.010;2023-11-18T07:46:03;12.48;;;6.53;;
70975;SDS011;58635;51.198;6.010;2023-11-18T07:48:29;12.82;;;6.95;;
70975;SDS011;58635;51.198;6.010;2023-11-18T07:50:57;13.63;;;6.28;;
70975;SDS011;58635;51.198;6.010;2023-11-18T07:53:23;10.73;;;6.20;;
70975;SDS011;58635;51.198;6.010;2023-11-18T07:55:49;11.10;;;7.70;;
70975;SDS011;58635;51.198;6.010;2023-11-18T07:58:16;10.73;;;6.30;;
70975;SDS011;58635;51.198;6.010;2023-11-18T08:00:44;10.48;;;5.30;;
70975;SDS011;58635;51.198;6.010;2023-11-18T08:03:11;12.15;;;5.63;;
70975;SDS011;58635;51.198;6.010;2023-11-18T08:05:38;10.90;;;5.78;;
70975;SDS011;58635;51.198;6.010;2023-11-18T08:08:09;13.05;;;6.25;;
70975;SDS011;58635;51.198;6.010;2023-11-18T08:10:37;13.55;;;7.05;;
70975;SDS011;58635;51.198;6.010;2023-11-18T08:13:05;10.70;;;6.00;;
70975;SDS011;58635;51.198;6.010;2023-11-18T08:15:40;9.20;;;6.43;;
70975;SDS011;58635;51.198;6.010;2023-11-18T08:18:08;11.63;;;7.13;;
70975;SDS011;58635;51.198;6.010;2023-11-18T08:20:36;10.18;;;7.38;;
70975;SDS011;58635;51.198;6.010;2023-11-18T08:23:03;12.30;;;6.85;;
70975;SDS011;58635;51.198;6.010;2023-11-18T08:25:34;14.95;;;8.07;;
70975;SDS011;58635;51.198;6.010;2023-11-18T08:28:01;13.88;;;8.32;;
70975;SDS011;58635;51.198;6.010;2023-11-18T08:30:29;15.48;;;7.88;;
70975;SDS011;58635;51.198;6.010;2023-11-18T08:32:56;13.13;;;7.22;;
70975;SDS011;58635;51.198;6.010;2023-11-18T08:35:24;13.52;;;6.72;;
70975;SDS011;58635;51.198;6.010;2023-11-18T08:37:50;14.30;;;6.43;;
70975;SDS011;58635;51.198;6.010;2023-11-18T08:40:17;12.68;;;6.47;;
70975;SDS011;58635;51.198;6.010;2023-11-18T08:42:49;12.60;;;6.78;;
70975;SDS011;58635;51.198;6.010;2023-11-18T08:45:18;13.48;;;6.88;;
70975;SDS011;58635;51.198;6.010;2023-11-18T08:47:45;12.77;;;6.47;;
70975;SDS011;58635;51.198;6.010;2023-11-18T08:50:13;12.50;;;6.68;;
70975;SDS011;58635;51.198;6.010;2023-11-18T08:52:40;10.57;;;5.78;;
70975;SDS011;58635;51.198;6.010;2023-11-18T08:55:10;10.00;;;5.43;;
70975;SDS011;58635;51.198;6.010;2023-11-18T08:57:47;22.92;;;11.75;;
70975;SDS011;58635;51.198;6.010;2023-11-18T09:00:24;10.18;;;6.03;;
70975;SDS011;58635;51.198;6.010;2023-11-18T09:03:08;11.52;;;5.28;;
70975;SDS011;58635;51.198;6.010;2023-11-18T09:05:34;9.52;;;5.43;;
70975;SDS011;58635;51.198;6.010;2023-11-18T09:08:10;10.25;;;5.43;;
70975;SDS011;58635;51.198;6.010;2023-11-18T09:10:38;10.15;;;5.00;;
70975;SDS011;58635;51.198;6.010;2023-11-18T09:13:07;10.50;;;4.97;;
70975;SDS011;58635;51.198;6.010;2023-11-18T09:15:33;9.88;;;5.22;;
70975;SDS011;58635;51.198;6.010;2023-11-18T09:18:02;8.73;;;4.80;;
70975;SDS011;58635;51.198;6.010;2023-11-18T09:20:29;11.93;;;5.30;;
70975;SDS011;58635;51.198;6.010;2023-11-18T09:22:55;9.73;;;5.22;;
70975;SDS011;58635;51.198;6.010;2023-11-18T09:25:21;9.63;;;5.35;;
70975;SDS011;58635;51.198;6.010;2023-11-18T09:27:48;8.05;;;4.88;;
70975;SDS011;58635;51.198;6.010;2023-11-18T09:30:14;7.82;;;4.60;;
70975;SDS011;58635;51.198;6.010;2023-11-18T09:32:41;9.02;;;4.40;;
70975;SDS011;58635;51.198;6.010;2023-11-18T09:35:13;10.00;;;4.70;;
70975;SDS011;58635;51.198;6.010;2023-11-18T09:37:39;12.02;;;4.53;;
70975;SDS011;58635;51.198;6.010;2023-11-18T09:40:13;13.25;;;8.20;;
70975;SDS011;58635;51.198;6.010;2023-11-18T09:42:40;9.05;;;4.50;;
70975;SDS011;58635;51.198;6.010;2023-11-18T09:45:10;9.50;;;4.47;;
70975;SDS011;58635;51.198;6.010;2023-11-18T09:47:46;8.10;;;4.55;;
70975;SDS011;58635;51.198;6.010;2023-11-18T09:50:19;8.85;;;4.43;;
70975;SDS011;58635;51.198;6.010;2023-11-18T09:52:54;7.70;;;4.35;;
70975;SDS011;58635;51.198;6.010;2023-11-18T09:55:38;9.02;;;5.60;;
70975;SDS011;58635;51.198;6.010;2023-11-18T09:58:15;9.18;;;4.95;;
70975;SDS011;58635;51.198;6.010;2023-11-18T10:00:45;10.73;;;5.00;;
70975;SDS011;58635;51.198;6.010;2023-11-18T10:03:16;8.15;;;4.32;;
70975;SDS011;58635;51.198;6.010;2023-11-18T10:05:43;9.05;;;4.90;;
70975;SDS011;58635;51.198;6.010;2023-11-18T10:08:11;9.77;;;4.40;;
70975;SDS011;58635;51.198;6.010;2023-11-18T10:10:37;10.55;;;4.72;;
70975;SDS011;58635;51.198;6.010;2023-11-18T10:13:04;9.90;;;4.55;;
70975;SDS011;58635;51.198;6.010;2023-11-18T10:15:34;9.38;;;4.50;;
70975;SDS011;58635;51.198;6.010;2023-11-18T10:18:02;9.10;;;4.40;;
70975;SDS011;58635;51.198;6.010;2023-11-18T10:20:48;9.88;;;4.20;;
70975;SDS011;58635;51.198;6.010;2023-11-18T10:23:20;11.45;;;4.55;;
70975;SDS011;58635;51.198;6.010;2023-11-18T10:25:48;9.05;;;4.65;;
70975;SDS011;58635;51.198;6.010;2023-11-18T10:28:28;8.20;;;4.00;;
70975;SDS011;58635;51.198;6.010;2023-11-18T10:30:58;8.15;;;4.63;;
70975;SDS011;58635;51.198;6.010;2023-11-18T10:33:36;7.53;;;4.45;;
70975;SDS011;58635;51.198;6.010;2023-11-18T10:36:18;10.40;;;5.10;;
70975;SDS011;58635;51.198;6.010;2023-11-18T10:38:49;7.90;;;4.45;;
70975;SDS011;58635;51.198;6.010;2023-11-18T10:41:20;9.52;;;4.60;;
70975;SDS011;58635;51.198;6.010;2023-11-18T10:43:47;9.90;;;4.07;;
70975;SDS011;58635;51.198;6.010;2023-11-18T10:46:16;10.85;;;4.30;;
70975;SDS011;58635;51.198;6.010;2023-11-18T10:48:49;10.25;;;4.00;;
70975;SDS011;58635;51.198;6.010;2023-11-18T10:51:17;8.82;;;3.63;;
70975;SDS011;58635;51.198;6.010;2023-11-18T10:53:49;8.95;;;4.38;;
70975;SDS011;58635;51.198;6.010;2023-11-18T10:56:24;9.07;;;4.00;;
70975;SDS011;58635;51.198;6.010;2023-11-18T10:58:58;7.05;;;3.80;;
70975;SDS011;58635;51.198;6.010;2023-11-18T11:01:34;8.35;;;4.05;;
70975;SDS011;58635;51.198;6.010;2023-11-18T11:04:08;7.35;;;3.90;;
70975;SDS011;58635;51.198;6.010;2023-11-18T11:06:40;8.98;;;3.85;;
70975;SDS011;58635;51.198;6.010;2023-11-18T11:09:08;11.52;;;4.30;;
70975;SDS011;58635;51.198;6.010;2023-11-18T11:11:48;10.10;;;4.65;;
70975;SDS011;58635;51.198;6.010;2023-11-18T11:14:15;8.82;;;3.85;;
70975;SDS011;58635;51.198;6.010;2023-11-18T11:16:47;10.30;;;3.42;;
70975;SDS011;58635;51.198;6.010;2023-11-18T11:19:24;10.00;;;3.75;;
70975;SDS011;58635;51.198;6.010;2023-11-18T11:21:55;9.15;;;4.13;;
70975;SDS011;58635;51.198;6.010;2023-11-18T11:27:04;8.30;;;3.53;;
70975;SDS011;58635;51.198;6.010;2023-11-18T11:29:56;8.02;;;3.22;;
70975;SDS011;58635;51.198;6.010;2023-11-18T11:32:38;6.75;;;2.70;;
70975;SDS011;58635;51.198;6.010;2023-11-18T11:35:14;6.93;;;2.58;;
70975;SDS011;58635;51.198;6.010;2023-11-18T11:37:51;6.88;;;2.40;;
70975;SDS011;58635;51.198;6.010;2023-11-18T11:40:20;6.75;;;2.20;;
70975;SDS011;58635;51.198;6.010;2023-11-18T11:42:48;8.60;;;2.28;;
70975;SDS011;58635;51.198;6.010;2023-11-18T11:45:21;9.38;;;2.10;;
70975;SDS011;58635;51.198;6.010;2023-11-18T11:47:54;6.18;;;2.10;;
70975;SDS011;58635;51.198;6.010;2023-11-18T11:50:52;4.95;;;1.98;;
70975;SDS011;58635;51.198;6.010;2023-11-18T11:53:30;9.27;;;2.80;;
70975;SDS011;58635;51.198;6.010;2023-11-18T11:56:02;5.93;;;2.30;;
70975;SDS011;58635;51.198;6.010;2023-11-18T11:58:41;6.90;;;2.03;;
70975;SDS011;58635;51.198;6.010;2023-11-18T12:03:59;6.80;;;2.10;;
70975;SDS011;58635;51.198;6.010;2023-11-18T12:06:38;7.53;;;2.30;;
70975;SDS011;58635;51.198;6.010;2023-11-18T12:09:08;6.20;;;2.00;;
70975;SDS011;58635;51.198;6.010;2023-11-18T12:11:36;20.83;;;12.38;;
70975;SDS011;58635;51.198;6.010;2023-11-18T12:14:06;7.85;;;2.17;;
70975;SDS011;58635;51.198;6.010;2023-11-18T12:19:33;3.78;;;1.40;;
70975;SDS011;58635;51.198;6.010;2023-11-18T12:22:13;5.72;;;1.60;;
70975;SDS011;58635;51.198;6.010;2023-11-18T12:25:29;5.20;;;1.58;;
70975;SDS011;58635;51.198;6.010;2023-11-18T12:35:27;2.42;;;1.25;;
70975;SDS011;58635;51.198;6.010;2023-11-18T12:43:18;5.93;;;1.50;;
70975;SDS011;58635;51.198;6.010;2023-11-18T12:49:18;5.38;;;1.25;;
70975;SDS011;58635;51.198;6.010;2023-11-18T12:51:53;6.40;;;1.40;;
70975;SDS011;58635;51.198;6.010;2023-11-18T12:54:23;6.03;;;1.70;;
70975;SDS011;58635;51.198;6.010;2023-11-18T12:56:54;6.32;;;1.60;;
70975;SDS011;58635;51.198;6.010;2023-11-18T12:59:21;6.05;;;1.67;;
70975;SDS011;58635;51.198;6.010;2023-11-18T13:01:49;3.92;;;1.73;;
70975;SDS011;58635;51.198;6.010;2023-11-18T13:04:30;5.50;;;2.03;;
70975;SDS011;58635;51.198;6.010;2023-11-18T13:06:57;4.18;;;1.65;;
70975;SDS011;58635;51.198;6.010;2023-11-18T13:09:26;6.18;;;1.60;;
70975;SDS011;58635;51.198;6.010;2023-11-18T13:11:56;3.65;;;1.63;;
70975;SDS011;58635;51.198;6.010;2023-11-18T13:14:25;4.70;;;1.73;;
70975;SDS011;58635;51.198;6.010;2023-11-18T13:16:55;5.90;;;1.92;;
70975;SDS011;58635;51.198;6.010;2023-11-18T13:19:23;4.65;;;1.92;;
70975;SDS011;58635;51.198;6.010;2023-11-18T13:22:00;5.85;;;1.70;;
70975;SDS011;58635;51.198;6.010;2023-11-18T13:24:33;5.25;;;1.58;;
70975;SDS011;58635;51.198;6.010;2023-11-18T13:27:00;4.60;;;1.48;;
70975;SDS011;58635;51.198;6.010;2023-11-18T13:29:30;4.90;;;1.70;;
70975;SDS011;58635;51.198;6.010;2023-11-18T13:31:58;3.80;;;1.52;;
70975;SDS011;58635;51.198;6.010;2023-11-18T13:34:26;5.82;;;1.80;;
70975;SDS011;58635;51.198;6.010;2023-11-18T13:36:53;10.68;;;4.90;;
70975;SDS011;58635;51.198;6.010;2023-11-18T13:39:21;5.60;;;1.75;;
70975;SDS011;58635;51.198;6.010;2023-11-18T13:41:48;5.38;;;1.77;;
70975;SDS011;58635;51.198;6.010;2023-11-18T13:44:34;4.65;;;1.60;;
70975;SDS011;58635;51.198;6.010;2023-11-18T13:47:01;4.20;;;1.60;;
70975;SDS011;58635;51.198;6.010;2023-11-18T13:49:31;4.40;;;1.70;;
70975;SDS011;58635;51.198;6.010;2023-11-18T13:52:01;4.50;;;1.80;;
70975;SDS011;58635;51.198;6.010;2023-11-18T13:54:28;6.05;;;2.03;;
70975;SDS011;58635;51.198;6.010;2023-11-18T13:56:56;4.40;;;1.83;;
70975;SDS011;58635;51.198;6.010;2023-11-18T13:59:25;4.43;;;1.70;;
70975;SDS011;58635;51.198;6.010;2023-11-18T14:01:55;6.03;;;1.90;;
70975;SDS011;58635;51.198;6.010;2023-11-18T14:04:23;8.73;;;1.75;;
70975;SDS011;58635;51.198;6.010;2023-11-18T14:06:51;4.80;;;1.48;;
70975;SDS011;58635;51.198;6.010;2023-11-18T14:09:19;3.88;;;1.70;;
70975;SDS011;58635;51.198;6.010;2023-11-18T14:11:51;3.15;;;1.52;;
70975;SDS011;58635;51.198;6.010;2023-11-18T14:14:17;4.32;;;1.67;;
70975;SDS011;58635;51.198;6.010;2023-11-18T14:16:44;3.72;;;1.40;;
70975;SDS011;58635;51.198;6.010;2023-11-18T14:19:10;4.30;;;1.52;;
70975;SDS011;58635;51.198;6.010;2023-11-18T14:21:37;3.33;;;1.40;;
70975;SDS011;58635;51.198;6.010;2023-11-18T14:24:03;4.20;;;1.50;;
70975;SDS011;58635;51.198;6.010;2023-11-18T14:26:30;3.05;;;1.30;;
70975;SDS011;58635;51.198;6.010;2023-11-18T14:28:57;2.17;;;1.40;;
70975;SDS011;58635;51.198;6.010;2023-11-18T14:31:25;4.20;;;1.67;;
70975;SDS011;58635;51.198;6.010;2023-11-18T14:33:51;2.88;;;1.45;;
70975;SDS011;58635;51.198;6.010;2023-11-18T14:36:18;3.63;;;1.50;;
70975;SDS011;58635;51.198;6.010;2023-11-18T14:38:45;4.28;;;1.50;;
70975;SDS011;58635;51.198;6.010;2023-11-18T14:41:13;3.13;;;1.63;;
70975;SDS011;58635;51.198;6.010;2023-11-18T14:43:39;4.03;;;1.40;;
70975;SDS011;58635;51.198;6.010;2023-11-18T14:46:07;71.00;;;41.38;;
70975;SDS011;58635;51.198;6.010;2023-11-18T14:48:34;60.92;;;38.45;;
70975;SDS011;58635;51.198;6.010;2023-11-18T14:51:01;7.13;;;3.33;;
70975;SDS011;58635;51.198;6.010;2023-11-18T14:53:27;3.78;;;1.88;;
70975;SDS011;58635;51.198;6.010;2023-11-18T14:55:53;6.03;;;1.60;;
70975;SDS011;58635;51.198;6.010;2023-11-18T14:58:20;3.72;;;1.80;;
70975;SDS011;58635;51.198;6.010;2023-11-18T15:00:46;4.18;;;1.67;;
70975;SDS011;58635;51.198;6.010;2023-11-18T15:03:13;2.75;;;1.40;;
70975;SDS011;58635;51.198;6.010;2023-11-18T15:05:41;3.38;;;1.75;;
70975;SDS011;58635;51.198;6.010;2023-11-18T15:08:10;4.30;;;1.30;;
70975;SDS011;58635;51.198;6.010;2023-11-18T15:10:39;3.08;;;1.73;;